KCRW/CRW METAR and TAF weather

Enter ICAO airport designator
Station Type Date Time Source
KCRW METAR 2018/04/21 20:54 UTC NOAA

KCRW 212054Z 00000KT 10SM SCT250 21/M07 A3027 RMK AO2 SLP252 T02111067 56018 $


Station Type Date Time Source
KCRW Decoded METAR 2018/04/21 20:54 UTC NOAA

YEAGER AIRPORT, WV, United States (KCRW) 38-22N 081-36W 309M
Apr 21, 2018 - 04:54 PM EDT / 2018.04.21 2054 UTC
Wind: Calm:0
Visibility: 10 mile(s):0
Sky conditions: partly cloudy
Temperature: 70.0 F (21.1 C)
Dew Point: 19.9 F (-6.7 C)
Relative Humidity: 14%
Pressure (altimeter): 30.27 in. Hg (1025 hPa)
Pressure tendency: 0.05 inches (1.8 hPa) lower than three hours ago
ob: KCRW 212054Z 00000KT 10SM SCT250 21/M07 A3027 RMK AO2 SLP252 T02111067 56018
cycle: 21

Station Type Date Time Source
KCRW TAF 2018/04/21 18:22 UTC NOAA

TAF KCRW 211720Z 2118/2218 VRB03KT P6SM SCT250
FM220900 00000KT P6SM BKN250


Example: see airport list